CheckWX is a tool to help pilots better visualize weather data.  It is not intended as a substitute for an official pre-flight weather briefing.

06:08:00 UTC

KRZL METAR
Jasper County Airport
Rensselaer, Indiana, USA
Current

13 mins ago

KRZL 260555Z AUTO 25013G18KT 10SM CLR 22/15 A2999 RMK AO2
Observed
Jun-26 @ 05:55 UTC
Wind
  • 250° at 13 KTS
  • Gusting to 18 KTS
Visibility
10 SM
Flight Rules
VFR
Cloud Levels
  • Clear skies
Temperature
22°C / 72°F
Dewpoint
15°C / 59°F
Humidity
65%
Altimeter
29.99" Hg
Pressure
1015.62 hPa
Previous

33 mins ago

KRZL 260535Z AUTO 26014G21KT 10SM CLR 22/15 A2998 RMK AO2
Observed
Jun-26 @ 05:35 UTC
Wind
  • 260° at 14 KTS
  • Gusting to 21 KTS
Visibility
10 SM
Flight Rules
VFR
Cloud Levels
  • Clear skies
Temperature
22°C / 72°F
Dewpoint
15°C / 59°F
Humidity
65%
Altimeter
29.98" Hg
Pressure
1015.22 hPa
Previous

53 mins ago

KRZL 260515Z AUTO 25020G28KT 10SM SCT055 23/17 A2999 RMK AO2
Observed
Jun-26 @ 05:15 UTC
Wind
  • 250° at 20 KTS
  • Gusting to 28 KTS
Visibility
10 SM
Flight Rules
VFR
Cloud Levels
  • Scattered at 5,500' AGL
Temperature
23°C / 73°F
Dewpoint
17°C / 63°F
Humidity
69%
Altimeter
29.99" Hg
Pressure
1015.62 hPa